Time;durP1;ratioP1;P1;durP2;ratioP2;P2;SDS_P1;SDS_P2;PMS_P1;PMS_P2;Temp;Humidity;BMP_temperature;BMP_pressure;BME280_temperature;BME280_humidity;BME280_pressure;Samples;Min_cycle;Max_cycle;Signal;HPM_P1;HPM_P2
2022/09/28 00:01:48;;;;;;;4.75;2.80;;;23.20;58.00;;;;;;7676873;22;80616;-51
2022/09/28 00:04:48;;;;;;;3.58;2.30;;;23.20;58.00;;;;;;7678943;22;80220;-54
2022/09/28 00:07:49;;;;;;;4.18;2.40;;;23.20;58.00;;;;;;7678462;22;81388;-52
2022/09/28 00:10:49;;;;;;;4.95;2.92;;;23.20;58.10;;;;;;7682166;22;81095;-59
2022/09/28 00:13:50;;;;;;;5.25;2.85;;;23.20;58.60;;;;;;7678630;22;81730;-61
2022/09/28 00:16:51;;;;;;;4.80;2.88;;;23.20;58.00;;;;;;7678346;22;81398;-60
2022/09/28 00:19:51;;;;;;;3.72;2.78;;;23.20;58.10;;;;;;7678618;22;87430;-60
2022/09/28 00:22:52;;;;;;;5.38;2.92;;;23.20;58.00;;;;;;7679069;22;82127;-59
2022/09/28 00:25:52;;;;;;;3.15;2.17;;;23.20;58.10;;;;;;7680877;22;80254;-59
2022/09/28 00:28:53;;;;;;;6.20;3.35;;;23.20;58.10;;;;;;7678692;22;81077;-64
2022/09/28 00:31:58;;;;;;;3.25;2.42;;;23.20;58.10;;;;;;7679165;22;80316;-62
2022/09/28 00:34:59;;;;;;;3.60;2.65;;;23.20;58.10;;;;;;7678487;22;80103;-62
2022/09/28 00:38:01;;;;;;;5.43;3.42;;;23.20;58.20;;;;;;7654595;22;81292;-64
2022/09/28 00:41:04;;;;;;;3.28;2.22;;;23.20;58.30;;;;;;7652006;22;80778;-63
2022/09/28 00:44:04;;;;;;;4.35;2.72;;;23.20;58.40;;;;;;7678228;22;80743;-65
2022/09/28 00:47:05;;;;;;;10.25;2.97;;;23.20;58.40;;;;;;7680222;22;81358;-60
2022/09/28 00:50:06;;;;;;;6.45;2.95;;;23.20;58.50;;;;;;7679255;22;80209;-60
2022/09/28 00:53:06;;;;;;;3.83;2.63;;;23.20;58.50;;;;;;7678266;22;80153;-60
2022/09/28 00:56:08;;;;;;;4.57;2.40;;;23.20;58.60;;;;;;7652661;22;81472;-60
2022/09/28 00:59:09;;;;;;;4.72;2.67;;;23.20;58.60;;;;;;7679279;22;80372;-60
2022/09/28 01:02:13;;;;;;;3.22;2.35;;;23.20;58.60;;;;;;7651054;22;81513;-60
2022/09/28 01:05:14;;;;;;;4.60;2.75;;;23.20;58.60;;;;;;7679139;22;80196;-60
2022/09/28 01:08:14;;;;;;;4.72;2.70;;;23.10;58.60;;;;;;7678320;22;80235;-59
2022/09/28 01:11:15;;;;;;;3.38;2.38;;;23.10;58.50;;;;;;7651842;22;83038;-59
2022/09/28 01:14:16;;;;;;;4.38;2.67;;;23.10;58.50;;;;;;7652712;22;81613;-60
2022/09/28 01:17:18;;;;;;;6.63;2.50;;;23.10;58.50;;;;;;7654212;22;83182;-61
2022/09/28 01:20:24;;;;;;;4.28;2.45;;;23.10;58.60;;;;;;7651427;22;82824;-60
2022/09/28 01:23:24;;;;;;;6.43;3.20;;;23.10;58.60;;;;;;7650499;22;83165;-59
2022/09/28 01:26:25;;;;;;;4.70;2.90;;;23.20;58.60;;;;;;7646652;22;83195;-59
2022/09/28 01:29:25;;;;;;;4.70;2.50;;;23.10;58.60;;;;;;7680779;22;81532;-58
2022/09/28 01:32:27;;;;;;;5.20;2.90;;;23.10;58.70;;;;;;7650104;22;82564;-59
2022/09/28 01:35:28;;;;;;;5.32;2.95;;;23.20;58.80;;;;;;7680128;22;79943;-60
2022/09/28 01:38:28;;;;;;;5.50;3.47;;;23.10;58.70;;;;;;7676881;22;81332;-59
2022/09/28 01:41:30;;;;;;;4.03;3.03;;;23.20;58.80;;;;;;7651105;22;81514;-60
2022/09/28 01:44:30;;;;;;;4.43;2.70;;;23.10;58.80;;;;;;7679872;22;80308;-60
2022/09/28 01:47:31;;;;;;;4.85;2.90;;;23.10;58.80;;;;;;7676977;22;80561;-61
2022/09/28 01:50:32;;;;;;;5.90;2.78;;;23.10;58.70;;;;;;7677556;22;79980;-59
2022/09/28 01:53:34;;;;;;;4.10;2.92;;;23.10;58.70;;;;;;7652324;22;82546;-60
2022/09/28 01:56:36;;;;;;;5.00;3.42;;;23.10;58.70;;;;;;7649951;22;87322;-59
2022/09/28 01:59:37;;;;;;;4.25;2.42;;;23.10;58.80;;;;;;7651237;22;83340;-54
2022/09/28 02:02:37;;;;;;;5.85;2.80;;;23.10;58.70;;;;;;7650840;22;83094;-51
2022/09/28 02:05:39;;;;;;;3.17;2.58;;;23.10;58.70;;;;;;7677157;22;79888;-55
2022/09/28 02:08:39;;;;;;;5.05;3.13;;;23.10;58.70;;;;;;7676721;22;80343;-53
2022/09/28 02:11:40;;;;;;;8.38;3.00;;;23.10;58.70;;;;;;7651090;22;82903;-52
2022/09/28 02:14:40;;;;;;;3.65;2.55;;;23.10;58.70;;;;;;7677608;22;80736;-52
2022/09/28 02:17:41;;;;;;;6.97;3.22;;;23.20;58.80;;;;;;7678834;22;80163;-60
2022/09/28 02:20:41;;;;;;;5.93;2.85;;;23.10;58.60;;;;;;7650387;22;83221;-58
2022/09/28 02:23:42;;;;;;;4.45;3.00;;;23.10;58.70;;;;;;7654104;22;81857;-60
2022/09/28 02:26:42;;;;;;;3.40;2.13;;;23.10;58.70;;;;;;7649594;22;83141;-61
2022/09/28 02:29:43;;;;;;;8.10;2.50;;;23.10;58.70;;;;;;7679143;22;80737;-61
2022/09/28 02:32:44;;;;;;;3.85;2.88;;;23.10;58.70;;;;;;7648504;22;83030;-59
2022/09/28 02:35:44;;;;;;;3.45;2.97;;;23.20;58.70;;;;;;7653393;22;82565;-60
2022/09/28 02:38:45;;;;;;;3.30;2.42;;;23.10;58.70;;;;;;7649878;22;83155;-60
2022/09/28 02:41:45;;;;;;;3.08;2.53;;;23.20;58.80;;;;;;7649155;22;83121;-58
2022/09/28 02:44:46;;;;;;;4.55;2.42;;;23.10;58.70;;;;;;7650589;22;83625;-60
2022/09/28 02:47:47;;;;;;;4.45;2.70;;;23.10;58.70;;;;;;7649742;22;82994;-60
2022/09/28 02:50:48;;;;;;;4.15;2.60;;;23.10;58.70;;;;;;7650628;22;82381;-59
2022/09/28 02:53:48;;;;;;;4.90;2.30;;;23.10;58.80;;;;;;7651947;22;81745;-52
2022/09/28 02:56:49;;;;;;;2.97;2.33;;;23.10;58.90;;;;;;7649433;22;82962;-54
2022/09/28 02:59:49;;;;;;;4.85;2.55;;;23.10;58.90;;;;;;7626151;22;83514;-52
2022/09/28 03:02:50;;;;;;;3.67;2.38;;;23.10;58.80;;;;;;7650288;22;81760;-53
2022/09/28 03:05:50;;;;;;;2.92;2.00;;;23.10;58.80;;;;;;7652615;22;81512;-54
2022/09/28 03:08:51;;;;;;;3.40;2.35;;;23.10;58.80;;;;;;7649378;22;83282;-56
2022/09/28 03:11:52;;;;;;;2.50;2.30;;;23.10;58.80;;;;;;7649230;22;83025;-55
2022/09/28 03:14:52;;;;;;;3.78;2.53;;;23.10;58.60;;;;;;7650463;22;83754;-55
2022/09/28 03:17:53;;;;;;;3.25;2.20;;;23.10;58.70;;;;;;7650924;22;82655;-51
2022/09/28 03:20:53;;;;;;;5.15;2.33;;;23.10;58.70;;;;;;7677926;22;80918;-54
2022/09/28 03:23:54;;;;;;;2.80;2.28;;;23.20;58.90;;;;;;7651351;22;83168;-53
2022/09/28 03:26:55;;;;;;;2.70;2.00;;;23.20;58.60;;;;;;7679427;22;80816;-55
2022/09/28 03:29:56;;;;;;;4.03;2.47;;;23.20;58.10;;;;;;7651672;22;82650;-51
2022/09/28 03:32:57;;;;;;;2.15;1.92;;;23.20;57.90;;;;;;7651512;22;81555;-58
2022/09/28 03:35:58;;;;;;;3.42;2.35;;;23.20;57.70;;;;;;7648799;22;82417;-60
2022/09/28 03:38:58;;;;;;;3.10;2.10;;;23.20;57.50;;;;;;7682104;22;80480;-60
2022/09/28 03:42:00;;;;;;;2.85;2.00;;;23.20;57.40;;;;;;7649478;22;82717;-60
2022/09/28 03:45:00;;;;;;;9.77;2.20;;;23.20;57.20;;;;;;7652912;22;82139;-58
2022/09/28 03:48:01;;;;;;;2.83;2.05;;;23.30;57.20;;;;;;7650612;22;82525;-60
2022/09/28 03:51:02;;;;;;;4.07;1.85;;;23.30;57.00;;;;;;7653584;22;82109;-57
2022/09/28 03:54:02;;;;;;;5.07;1.90;;;23.30;56.70;;;;;;7652960;22;82622;-55
2022/09/28 03:57:02;;;;;;;5.53;2.20;;;23.30;56.70;;;;;;7648940;22;83247;-55
2022/09/28 04:00:03;;;;;;;2.40;1.88;;;23.30;56.40;;;;;;7651145;22;82687;-54
2022/09/28 04:03:14;;;;;;;3.55;1.52;;;23.30;56.40;;;;;;7679038;22;81299;-53
2022/09/28 04:06:14;;;;;;;3.50;1.92;;;23.40;56.50;;;;;;7648460;22;82096;-55
2022/09/28 04:09:15;;;;;;;10.52;2.10;;;23.40;56.20;;;;;;7636281;22;81823;-55
2022/09/28 04:12:16;;;;;;;2.20;1.83;;;23.40;56.60;;;;;;7641735;22;81841;-59
2022/09/28 04:15:17;;;;;;;2.80;2.08;;;23.50;56.50;;;;;;7636860;22;83932;-60
2022/09/28 04:18:17;;;;;;;3.95;1.80;;;23.50;56.40;;;;;;7629685;22;83223;-61
2022/09/28 04:21:35;;;;;;;4.50;2.17;;;23.50;56.60;;;;;;7648704;22;82270;-60
2022/09/28 04:24:42;;;;;;;3.95;2.65;;;23.50;56.50;;;;;;7644784;22;83094;-60
2022/09/28 04:31:03;;;;;;;5.70;1.85;;;23.50;56.20;;;;;;7647751;22;82838;-55
2022/09/28 04:34:03;;;;;;;3.63;2.35;;;23.60;56.40;;;;;;7648305;22;82556;-54
2022/09/28 04:37:05;;;;;;;3.58;2.30;;;23.60;56.30;;;;;;7650957;22;82220;-55
2022/09/28 04:40:05;;;;;;;8.35;2.20;;;23.60;56.30;;;;;;7653034;22;82888;-57
2022/09/28 04:43:07;;;;;;;7.55;2.53;;;23.60;56.10;;;;;;7652978;22;82695;-52
2022/09/28 04:46:08;;;;;;;7.20;2.30;;;23.60;56.10;;;;;;7651910;22;81701;-61
2022/09/28 04:49:16;;;;;;;3.53;2.08;;;23.60;56.00;;;;;;7631876;22;83433;-62
2022/09/28 04:52:27;;;;;;;3.80;2.30;;;23.60;56.20;;;;;;7654976;22;81938;-61
2022/09/28 04:55:31;;;;;;;6.00;1.73;;;23.60;56.30;;;;;;7654606;22;83762;-61
2022/09/28 04:58:31;;;;;;;2.60;1.83;;;23.60;56.50;;;;;;7650549;22;82305;-61
2022/09/28 05:01:32;;;;;;;4.00;2.00;;;23.60;56.60;;;;;;7649371;22;82954;-60
2022/09/28 05:04:32;;;;;;;3.50;2.10;;;23.60;56.90;;;;;;7674555;22;80847;-66
2022/09/28 05:07:59;;;;;;;6.00;1.83;;;23.60;57.10;;;;;;7644255;22;82922;-71
2022/09/28 05:11:00;;;;;;;2.53;1.50;;;23.60;56.70;;;;;;7653646;22;82916;-68
2022/09/28 05:14:00;;;;;;;4.38;2.05;;;23.60;57.20;;;;;;7654240;22;83095;-68
2022/09/28 05:17:01;;;;;;;3.55;2.10;;;23.60;56.70;;;;;;7651092;22;83029;-60
2022/09/28 05:20:02;;;;;;;7.60;2.28;;;23.70;56.80;;;;;;7678834;22;80347;-61
2022/09/28 05:23:03;;;;;;;6.38;2.25;;;23.60;56.30;;;;;;7628708;22;81960;-66
2022/09/28 05:26:03;;;;;;;4.35;1.60;;;23.70;56.10;;;;;;7652000;22;81767;-65
2022/09/28 05:29:04;;;;;;;5.18;1.88;;;23.70;56.00;;;;;;7651315;22;82236;-61
2022/09/28 05:32:23;;;;;;;21.40;3.22;;;23.70;56.30;;;;;;7678874;22;84593;-61
2022/09/28 05:35:36;;;;;;;4.90;2.13;;;23.70;56.50;;;;;;7676991;22;80652;-60
2022/09/28 05:38:36;;;;;;;7.25;1.98;;;23.70;56.00;;;;;;7645961;22;82857;-59
2022/09/28 05:41:37;;;;;;;5.78;2.38;;;23.80;56.00;;;;;;7641943;22;83256;-60
2022/09/28 05:44:38;;;;;;;4.93;2.03;;;23.80;55.80;;;;;;7648335;22;83496;-59
2022/09/28 05:47:39;;;;;;;3.08;1.80;;;23.70;55.40;;;;;;7647581;22;83404;-62
2022/09/28 05:50:40;;;;;;;3.65;2.10;;;23.70;55.20;;;;;;7644559;22;83286;-56
2022/09/28 05:53:40;;;;;;;4.93;1.90;;;23.70;55.50;;;;;;7642801;22;82266;-60
2022/09/28 05:56:41;;;;;;;4.78;2.15;;;23.70;55.20;;;;;;7650768;22;82060;-59
2022/09/28 05:59:42;;;;;;;4.78;1.92;;;23.70;55.00;;;;;;7648613;22;82903;-59
2022/09/28 06:02:42;;;;;;;6.68;1.98;;;23.70;55.20;;;;;;7646039;22;83207;-60
2022/09/28 06:05:46;;;;;;;2.78;1.65;;;23.70;55.20;;;;;;7643941;22;82507;-59
2022/09/28 06:08:47;;;;;;;3.10;1.85;;;23.60;55.10;;;;;;7629346;22;83034;-60
2022/09/28 06:12:14;;;;;;;2.40;1.90;;;23.60;55.10;;;;;;7648526;22;80636;-62
2022/09/28 06:15:21;;;;;;;4.60;1.88;;;23.60;55.00;;;;;;7639801;22;81778;-61
2022/09/28 06:18:21;;;;;;;3.50;1.45;;;23.60;54.50;;;;;;7647141;22;81970;-60
2022/09/28 06:21:45;;;;;;;3.13;1.73;;;23.60;55.00;;;;;;7646144;22;81427;-63
2022/09/28 06:24:46;;;;;;;4.93;1.52;;;23.50;53.10;;;;;;7678339;22;80193;-65
2022/09/28 06:27:46;;;;;;;6.20;3.08;;;23.00;49.90;;;;;;7672904;22;80492;-66
2022/09/28 06:30:47;;;;;;;7.85;2.55;;;22.50;49.90;;;;;;7608933;22;82968;-68
2022/09/28 06:33:50;;;;;;;3.42;1.60;;;21.90;49.70;;;;;;7664775;22;81445;-64
2022/09/28 06:36:51;;;;;;;1.65;1.25;;;21.80;49.90;;;;;;7652170;22;82947;-65
2022/09/28 06:39:52;;;;;;;3.20;1.60;;;21.40;49.70;;;;;;7648202;22;82821;-65
2022/09/28 06:42:53;;;;;;;5.57;1.70;;;21.10;50.30;;;;;;7632317;22;83720;-64
2022/09/28 06:46:07;;;;;;;2.25;1.27;;;21.10;50.30;;;;;;7630431;22;81922;-64
2022/09/28 06:49:29;;;;;;;4.00;2.08;;;21.00;49.80;;;;;;7667004;22;80774;-63
2022/09/28 06:52:41;;;;;;;4.07;1.52;;;20.60;50.70;;;;;;7674746;22;80363;-66
2022/09/28 06:55:54;;;;;;;3.50;1.30;;;20.50;50.80;;;;;;7646978;22;83263;-62
2022/09/28 06:58:54;;;;;;;2.85;1.20;;;20.00;51.60;;;;;;7670534;22;82147;-63
2022/09/28 07:01:55;;;;;;;5.97;1.23;;;19.60;51.70;;;;;;7645467;22;82534;-64
2022/09/28 07:05:18;;;;;;;1.65;1.08;;;19.40;51.60;;;;;;7672062;22;84543;-65
2022/09/28 07:08:36;;;;;;;0.98;0.93;;;19.20;52.10;;;;;;7666958;22;81431;-65
2022/09/28 07:11:55;;;;;;;4.30;1.23;;;18.90;52.30;;;;;;7671698;22;80807;-65
2022/09/28 07:15:05;;;;;;;2.58;1.15;;;18.90;52.80;;;;;;7677065;22;84981;-65
2022/09/28 07:18:06;;;;;;;1.90;0.90;;;19.00;52.80;;;;;;7650519;22;82851;-64
2022/09/28 07:21:06;;;;;;;0.90;0.90;;;19.10;52.90;;;;;;7649146;22;83573;-64
2022/09/28 07:24:13;;;;;;;3.35;0.90;;;18.90;52.60;;;;;;7647364;22;82357;-64
2022/09/28 07:27:32;;;;;;;5.32;0.98;;;18.70;52.40;;;;;;7674273;22;81199;-63
2022/09/28 07:30:48;;;;;;;1.55;1.33;;;18.60;52.40;;;;;;7648792;22;82129;-65
2022/09/28 07:34:01;;;;;;;5.25;2.33;;;18.90;52.50;;;;;;7650206;22;83318;-64
2022/09/28 07:37:07;;;;;;;4.20;1.65;;;19.00;51.20;;;;;;7648373;22;81651;-65
2022/09/28 07:43:28;;;;;;;2.70;1.33;;;19.10;51.20;;;;;;7642790;22;82234;-63
2022/09/28 07:46:29;;;;;;;1.27;0.90;;;19.20;50.50;;;;;;7643144;22;82862;-63
2022/09/28 07:49:35;;;;;;;2.47;0.93;;;19.10;50.30;;;;;;7638676;22;81018;-61
2022/09/28 07:52:56;;;;;;;0.90;0.88;;;18.80;50.30;;;;;;7632291;22;80829;-64
2022/09/28 07:56:08;;;;;;;1.35;0.70;;;18.70;50.40;;;;;;7652461;22;83202;-62
2022/09/28 07:59:30;;;;;;;0.70;0.70;;;18.60;50.40;;;;;;7663512;22;84803;-63
2022/09/28 08:02:37;;;;;;;1.33;0.70;;;18.60;50.30;;;;;;7664769;22;80525;-65
2022/09/28 08:05:38;;;;;;;1.38;0.73;;;18.80;49.80;;;;;;7651253;22;83027;-63
2022/09/28 08:08:42;;;;;;;3.17;0.80;;;18.90;49.20;;;;;;7646391;22;82787;-62
2022/09/28 08:11:44;;;;;;;1.70;0.80;;;18.90;49.20;;;;;;7647568;22;82446;-63
2022/09/28 08:15:09;;;;;;;0.85;0.73;;;18.70;48.80;;;;;;7675034;22;81188;-70
2022/09/28 08:18:19;;;;;;;0.90;0.57;;;18.30;49.00;;;;;;7645664;22;83304;-61
2022/09/28 08:24:39;;;;;;;0.80;0.80;;;18.70;48.80;;;;;;7678164;22;80989;-62
2022/09/28 08:27:39;;;;;;;1.02;0.73;;;18.90;48.50;;;;;;7645242;22;87566;-62
2022/09/28 08:30:40;;;;;;;1.35;0.80;;;19.10;48.00;;;;;;7645411;22;82730;-61
2022/09/28 08:33:59;;;;;;;2.17;0.90;;;19.40;48.20;;;;;;7672071;22;80568;-63
2022/09/28 08:37:26;;;;;;;0.68;0.50;;;19.50;46.90;;;;;;7675289;22;81148;-63
2022/09/28 08:40:35;;;;;;;0.82;0.63;;;19.40;47.10;;;;;;7677443;22;81144;-62
2022/09/28 08:43:49;;;;;;;1.40;0.80;;;19.50;46.40;;;;;;7670169;22;81015;-63
2022/09/28 08:47:03;;;;;;;3.10;0.60;;;19.40;46.30;;;;;;7642853;22;83474;-62
2022/09/28 08:50:27;;;;;;;0.80;0.70;;;19.50;46.50;;;;;;7646714;22;84625;-63
2022/09/28 08:53:38;;;;;;;1.38;0.65;;;19.90;46.60;;;;;;7647376;22;83317;-62
2022/09/28 08:56:48;;;;;;;2.70;0.77;;;20.10;45.90;;;;;;7649108;22;82638;-62
2022/09/28 08:59:48;;;;;;;2.22;0.90;;;20.20;45.40;;;;;;7645878;22;83414;-63
2022/09/28 09:02:53;;;;;;;0.60;0.50;;;20.50;45.10;;;;;;7648379;22;83214;-62
2022/09/28 09:05:57;;;;;;;0.70;0.70;;;20.90;45.10;;;;;;7649911;22;81441;-62
2022/09/28 09:09:16;;;;;;;0.50;0.50;;;20.80;44.50;;;;;;7677023;22;80612;-63
2022/09/28 09:12:17;;;;;;;0.65;0.65;;;21.00;43.90;;;;;;7674009;22;80835;-63
2022/09/28 09:15:21;;;;;;;0.65;0.60;;;21.00;44.00;;;;;;7647524;22;80975;-63
2022/09/28 09:18:22;;;;;;;0.63;0.60;;;21.10;43.60;;;;;;7648353;22;83526;-63
2022/09/28 09:21:34;;;;;;;0.57;0.57;;;20.90;43.60;;;;;;7643411;22;81758;-56
2022/09/28 09:24:34;;;;;;;1.70;1.38;;;20.70;43.50;;;;;;7649022;22;82985;-56
2022/09/28 09:27:36;;;;;;;1.13;0.95;;;20.90;44.10;;;;;;7646017;22;82922;-62
2022/09/28 09:30:37;;;;;;;2.25;1.17;;;20.90;43.80;;;;;;7649721;22;82225;-61
2022/09/28 09:33:37;;;;;;;2.40;0.75;;;21.10;44.20;;;;;;7650181;22;82897;-62
2022/09/28 09:36:56;;;;;;;1.52;1.30;;;21.40;44.20;;;;;;7673600;22;81777;-64
2022/09/28 09:40:24;;;;;;;1.10;1.00;;;21.60;43.90;;;;;;7654149;22;80669;-56
2022/09/28 09:43:44;;;;;;;0.70;0.70;;;21.80;43.70;;;;;;7676759;22;81534;-54
2022/09/28 09:47:13;;;;;;;1.42;0.85;;;22.00;43.70;;;;;;7620266;22;84802;-56
2022/09/28 09:50:29;;;;;;;0.60;0.60;;;22.20;43.70;;;;;;7646217;22;83300;-57
2022/09/28 09:53:31;;;;;;;2.00;0.77;;;22.30;43.60;;;;;;7652402;22;82881;-55
2022/09/28 09:56:33;;;;;;;0.90;0.73;;;22.40;43.30;;;;;;7678035;22;80138;-63
2022/09/28 09:59:44;;;;;;;1.75;0.90;;;22.60;43.60;;;;;;7650648;22;83249;-60
2022/09/28 10:02:56;;;;;;;0.80;0.70;;;22.70;43.30;;;;;;7648711;22;82404;-68
2022/09/28 10:06:10;;;;;;;2.97;0.95;;;22.80;43.20;;;;;;7649336;22;83625;-62
2022/09/28 10:09:11;;;;;;;1.75;0.70;;;22.90;43.60;;;;;;7652833;22;83028;-61
2022/09/28 10:12:14;;;;;;;0.77;0.75;;;23.00;43.30;;;;;;7651476;22;82844;-61
2022/09/28 10:15:14;;;;;;;0.68;0.68;;;23.00;42.80;;;;;;7651412;22;83401;-58
2022/09/28 10:18:23;;;;;;;1.92;1.20;;;23.00;42.70;;;;;;7650137;22;82628;-58
2022/09/28 10:21:43;;;;;;;1.85;1.10;;;23.10;42.50;;;;;;7677173;22;80035;-58
2022/09/28 10:24:55;;;;;;;1.42;1.13;;;23.20;42.60;;;;;;7648482;22;83175;-58
2022/09/28 10:27:56;;;;;;;1.58;1.00;;;23.20;42.60;;;;;;7647871;22;82780;-58
2022/09/28 10:30:57;;;;;;;1.30;1.13;;;23.40;42.50;;;;;;7651377;22;83911;-60
2022/09/28 10:33:59;;;;;;;7.30;0.85;;;23.40;42.60;;;;;;7649658;22;83073;-62
2022/09/28 10:37:00;;;;;;;1.45;1.23;;;23.40;41.90;;;;;;7651945;22;81526;-62
2022/09/28 10:40:07;;;;;;;0.95;0.90;;;23.50;41.80;;;;;;7648484;22;82786;-64
2022/09/28 10:43:08;;;;;;;1.55;1.23;;;23.50;42.00;;;;;;7650184;22;81426;-62
2022/09/28 10:46:09;;;;;;;0.73;0.73;;;23.50;42.10;;;;;;7649396;22;82505;-63
2022/09/28 10:49:10;;;;;;;3.42;1.27;;;23.50;42.40;;;;;;7648642;22;81457;-62
2022/09/28 10:52:12;;;;;;;1.13;1.02;;;23.50;42.50;;;;;;7648669;22;82804;-62
2022/09/28 10:55:13;;;;;;;1.48;0.80;;;23.60;42.40;;;;;;7652220;22;83116;-63
2022/09/28 10:58:14;;;;;;;2.17;1.30;;;23.60;42.20;;;;;;7641960;22;82554;-67
2022/09/28 11:01:15;;;;;;;2.60;1.60;;;23.60;42.40;;;;;;7649909;22;83344;-68
2022/09/28 11:04:17;;;;;;;1.67;1.10;;;23.50;42.40;;;;;;7651001;22;82890;-60
2022/09/28 11:07:18;;;;;;;2.60;1.50;;;23.40;44.50;;;;;;7646418;22;82832;-62
2022/09/28 11:10:18;;;;;;;2.75;1.70;;;23.40;44.00;;;;;;7649195;22;83508;-64
2022/09/28 11:13:19;;;;;;;6.00;1.50;;;23.40;43.80;;;;;;7648121;22;83184;-66
2022/09/28 11:16:31;;;;;;;5.00;1.05;;;23.40;43.90;;;;;;7649748;22;82712;-67
2022/09/28 11:19:34;;;;;;;1.15;1.05;;;23.30;43.40;;;;;;7650946;22;82805;-64
2022/09/28 11:22:35;;;;;;;2.53;1.40;;;23.30;43.50;;;;;;7643794;22;83125;-62
2022/09/28 11:25:40;;;;;;;3.43;1.30;;;23.20;43.30;;;;;;7643947;22;82256;-65
2022/09/28 11:28:41;;;;;;;1.90;1.17;;;23.30;43.60;;;;;;7670245;22;80704;-66
2022/09/28 11:31:49;;;;;;;3.33;1.42;;;23.30;43.60;;;;;;7643362;22;83039;-65
2022/09/28 11:34:53;;;;;;;0.90;0.90;;;23.20;43.70;;;;;;7642991;22;81517;-64
2022/09/28 11:37:53;;;;;;;7.60;1.10;;;23.20;43.90;;;;;;7670411;22;80737;-63
2022/09/28 11:41:12;;;;;;;2.03;0.80;;;23.20;43.90;;;;;;7646564;22;86116;-62
2022/09/28 11:44:13;;;;;;;1.90;1.05;;;23.20;44.10;;;;;;7645161;22;83918;-63
2022/09/28 11:47:14;;;;;;;2.10;0.93;;;23.20;43.90;;;;;;7644616;22;82492;-63
2022/09/28 11:50:14;;;;;;;3.97;1.15;;;23.30;43.80;;;;;;7651370;22;81495;-60
2022/09/28 11:53:15;;;;;;;1.15;1.00;;;23.40;44.00;;;;;;7654561;22;82163;-63
2022/09/28 11:56:17;;;;;;;2.40;1.35;;;23.40;43.80;;;;;;7650149;22;82891;-64
2022/09/28 11:59:18;;;;;;;1.27;1.00;;;23.50;44.00;;;;;;7655152;22;83244;-63
2022/09/28 12:02:23;;;;;;;1.08;1.00;;;23.50;43.80;;;;;;7630915;22;83199;-63
2022/09/28 12:05:28;;;;;;;1.30;0.83;;;23.50;43.70;;;;;;7647828;22;82798;-63
2022/09/28 12:08:29;;;;;;;3.83;0.95;;;23.60;43.40;;;;;;7679977;22;80591;-61
2022/09/28 12:12:00;;;;;;;1.60;0.90;;;23.60;43.30;;;;;;7665003;22;80838;-60
2022/09/28 12:15:15;;;;;;;3.13;0.73;;;23.60;43.10;;;;;;7652852;22;82359;-62
2022/09/28 12:18:15;;;;;;;1.00;0.80;;;23.70;43.20;;;;;;7671613;22;80353;-62
2022/09/28 12:21:16;;;;;;;3.22;1.15;;;23.70;43.00;;;;;;7673939;22;80973;-62
2022/09/28 12:24:16;;;;;;;2.45;1.15;;;23.80;43.20;;;;;;7678761;22;80391;-62
2022/09/28 12:27:17;;;;;;;1.08;0.93;;;23.80;43.30;;;;;;7679552;22;80833;-61
2022/09/28 12:30:21;;;;;;;1.08;0.98;;;23.90;43.30;;;;;;7680065;22;80319;-62
2022/09/28 12:33:21;;;;;;;3.38;1.13;;;23.90;43.30;;;;;;7679368;22;80407;-62
2022/09/28 12:36:25;;;;;;;0.80;0.80;;;24.00;43.30;;;;;;7670435;22;80267;-62
2022/09/28 12:39:25;;;;;;;3.85;1.10;;;23.90;43.00;;;;;;7647029;22;80779;-63
2022/09/28 12:42:27;;;;;;;1.55;0.90;;;24.00;43.40;;;;;;7672552;22;81073;-61
2022/09/28 12:45:28;;;;;;;0.82;0.82;;;24.00;43.70;;;;;;7678925;22;80886;-62
2022/09/28 12:48:28;;;;;;;1.33;1.02;;;24.00;43.40;;;;;;7678868;22;80725;-62
2022/09/28 12:51:29;;;;;;;1.15;0.95;;;24.10;43.50;;;;;;7679658;22;81063;-62
2022/09/28 12:54:33;;;;;;;2.35;1.00;;;24.10;43.30;;;;;;7676796;22;80191;-61
2022/09/28 12:57:33;;;;;;;2.13;1.15;;;24.20;43.50;;;;;;7681086;22;81157;-62
2022/09/28 13:00:34;;;;;;;2.03;0.98;;;24.20;43.50;;;;;;7678212;22;80347;-63
2022/09/28 13:03:34;;;;;;;1.08;0.90;;;24.20;43.30;;;;;;7674476;22;81649;-65
2022/09/28 13:06:35;;;;;;;2.70;1.00;;;24.20;43.10;;;;;;7681171;22;81933;-63
2022/09/28 13:09:36;;;;;;;2.97;1.02;;;24.20;43.10;;;;;;7680528;22;81163;-63
2022/09/28 13:12:36;;;;;;;1.33;0.98;;;24.30;42.90;;;;;;7679330;22;81816;-65
2022/09/28 13:15:37;;;;;;;1.13;1.00;;;24.20;43.20;;;;;;7678596;22;80349;-65
2022/09/28 13:18:37;;;;;;;1.05;0.90;;;24.20;43.30;;;;;;7679599;22;80811;-60
2022/09/28 13:21:37;;;;;;;1.75;1.23;;;24.20;43.70;;;;;;7679099;22;80370;-59
2022/09/28 13:24:39;;;;;;;3.20;1.02;;;24.10;43.60;;;;;;7678858;22;80421;-60
2022/09/28 13:27:39;;;;;;;2.53;1.33;;;24.00;43.30;;;;;;7679255;22;80291;-62
2022/09/28 13:30:40;;;;;;;1.83;1.17;;;24.00;43.60;;;;;;7679054;22;81399;-59
2022/09/28 13:33:40;;;;;;;2.67;1.45;;;23.90;43.60;;;;;;7680661;22;81589;-59
2022/09/28 13:36:41;;;;;;;1.98;1.00;;;23.90;43.90;;;;;;7679058;22;81837;-59
2022/09/28 13:39:42;;;;;;;1.50;1.30;;;23.90;43.70;;;;;;7678842;22;80654;-60
2022/09/28 13:42:43;;;;;;;1.90;1.50;;;23.80;44.20;;;;;;7673506;22;81055;-60
2022/09/28 13:45:43;;;;;;;2.58;1.33;;;23.80;44.10;;;;;;7670208;22;80325;-60
2022/09/28 13:48:44;;;;;;;8.23;1.63;;;23.80;43.90;;;;;;7672747;22;80064;-60
2022/09/28 13:51:44;;;;;;;4.63;2.50;;;23.80;44.20;;;;;;7675789;22;81545;-61
2022/09/28 13:54:45;;;;;;;3.67;1.70;;;23.80;44.10;;;;;;7659356;22;81428;-63
2022/09/28 13:57:46;;;;;;;3.33;1.60;;;23.80;44.30;;;;;;7667711;22;81424;-65
2022/09/28 14:00:46;;;;;;;6.07;2.50;;;23.70;44.30;;;;;;7675579;22;80177;-63
2022/09/28 14:03:47;;;;;;;6.63;1.95;;;23.80;44.90;;;;;;7668302;22;80259;-72
2022/09/28 14:06:48;;;;;;;4.38;1.70;;;23.70;44.80;;;;;;7679585;22;80124;-61
2022/09/28 14:09:48;;;;;;;2.58;1.20;;;23.70;44.80;;;;;;7673176;22;80523;-61
2022/09/28 14:12:50;;;;;;;3.30;1.33;;;23.70;45.00;;;;;;7679746;22;80938;-60
2022/09/28 14:15:51;;;;;;;1.60;1.23;;;23.70;45.30;;;;;;7666700;22;81517;-60
2022/09/28 14:18:51;;;;;;;1.55;1.45;;;23.60;45.60;;;;;;7647461;22;82965;-59
2022/09/28 14:21:52;;;;;;;3.00;1.70;;;23.60;45.70;;;;;;7677093;22;80739;-59
2022/09/28 14:24:53;;;;;;;3.92;1.80;;;23.60;45.70;;;;;;7680294;22;80642;-59
2022/09/28 14:27:54;;;;;;;2.08;1.55;;;23.60;45.90;;;;;;7674255;22;80826;-60
2022/09/28 14:30:55;;;;;;;2.13;1.20;;;23.60;45.90;;;;;;7675829;22;82572;-58
2022/09/28 14:33:56;;;;;;;4.10;1.48;;;23.60;46.10;;;;;;7673743;22;80326;-58
2022/09/28 14:43:35;;;;;;;5.25;1.65;;;23.60;46.70;;;;;;7678676;22;80451;-61
2022/09/28 14:46:35;;;;;;;5.45;1.90;;;23.50;46.80;;;;;;7674266;22;80160;-61
2022/09/28 14:49:36;;;;;;;5.32;1.90;;;23.50;47.00;;;;;;7680490;22;80527;-61
2022/09/28 14:52:36;;;;;;;5.57;1.67;;;23.50;47.30;;;;;;7678648;22;80030;-53
2022/09/28 14:55:37;;;;;;;1.67;1.42;;;23.50;47.30;;;;;;7678485;22;80232;-54
2022/09/28 14:58:37;;;;;;;1.92;1.50;;;23.50;47.50;;;;;;7678701;22;80204;-52
2022/09/28 15:01:38;;;;;;;7.53;2.42;;;23.40;47.60;;;;;;7674204;22;81729;-52
2022/09/28 15:04:38;;;;;;;4.15;1.80;;;23.40;47.70;;;;;;7677320;22;80295;-54
2022/09/28 15:07:39;;;;;;;4.72;2.10;;;23.40;47.90;;;;;;7678396;22;80271;-55
2022/09/28 15:10:41;;;;;;;3.58;1.75;;;23.40;47.90;;;;;;7677778;22;80464;-60
2022/09/28 15:13:41;;;;;;;7.00;1.83;;;23.40;48.10;;;;;;7677388;22;80490;-60
2022/09/28 15:16:42;;;;;;;9.35;2.33;;;23.40;48.30;;;;;;7675747;22;81389;-60
2022/09/28 15:19:42;;;;;;;3.03;1.92;;;23.40;48.50;;;;;;7665339;22;79920;-59
2022/09/28 15:22:43;;;;;;;12.10;2.92;;;23.40;48.70;;;;;;7677819;22;81357;-61
2022/09/28 15:25:43;;;;;;;4.82;2.13;;;23.30;48.70;;;;;;7669688;22;80934;-61
2022/09/28 15:28:44;;;;;;;5.63;2.10;;;23.30;48.90;;;;;;7672585;22;81677;-56
2022/09/28 15:31:44;;;;;;;2.35;1.83;;;23.30;49.00;;;;;;7677717;22;80284;-50
2022/09/28 15:34:51;;;;;;;18.00;2.83;;;23.30;48.80;;;;;;7680493;22;80254;-54
2022/09/28 15:37:52;;;;;;;5.85;2.05;;;23.30;48.50;;;;;;7679279;22;82227;-52
2022/09/28 15:40:52;;;;;;;7.38;2.45;;;23.30;48.30;;;;;;7668276;22;81201;-54
2022/09/28 15:43:53;;;;;;;4.10;1.88;;;23.20;48.20;;;;;;7662977;22;80647;-50
2022/09/28 15:46:55;;;;;;;7.95;2.03;;;23.20;47.80;;;;;;7641588;22;82609;-58
2022/09/28 15:49:57;;;;;;;2.53;1.50;;;23.20;47.80;;;;;;7673943;22;81072;-57
2022/09/28 15:52:57;;;;;;;4.32;2.45;;;23.20;48.10;;;;;;7671484;22;80043;-58
2022/09/28 15:55:58;;;;;;;5.32;2.03;;;23.20;48.50;;;;;;7674744;22;80383;-58
2022/09/28 15:58:58;;;;;;;5.55;1.85;;;23.30;48.20;;;;;;7681806;22;80380;-58
2022/09/28 16:01:59;;;;;;;4.40;1.90;;;23.30;48.20;;;;;;7679405;22;80812;-57
2022/09/28 16:04:59;;;;;;;5.93;1.88;;;23.30;48.30;;;;;;7678855;22;80297;-58
2022/09/28 16:08:00;;;;;;;7.25;1.35;;;23.40;48.10;;;;;;7676048;22;80543;-57
2022/09/28 16:11:00;;;;;;;3.70;1.88;;;23.40;48.20;;;;;;7680424;22;80644;-56